createdAt,value
2022-08-12T00:02:56.218Z,100698.50
2022-08-12T00:05:59.701Z,100696.13
2022-08-12T00:08:53.712Z,100679.97
2022-08-12T00:11:41.186Z,100687.19
2022-08-12T00:18:29.020Z,100692.81
2022-08-12T00:21:14.921Z,100673.09
2022-08-12T00:24:04.336Z,100696.56
2022-08-12T00:26:51.305Z,100681.13
2022-08-12T00:30:27.055Z,100690.69
2022-08-12T00:33:13.092Z,100673.59
2022-08-12T00:36:03.204Z,100688.44
2022-08-12T00:38:49.243Z,100681.53
2022-08-12T00:41:37.672Z,100679.13
2022-08-12T00:44:09.181Z,100702.59
2022-08-12T00:46:43.331Z,100662.91
2022-08-12T00:52:31.939Z,100688.69
2022-08-12T00:55:26.291Z,100702.59
2022-08-12T00:57:56.737Z,100700.94
2022-08-12T01:00:26.816Z,100659.47
2022-08-12T01:02:58.803Z,100693.16
2022-08-12T01:05:45.388Z,100685.94
2022-08-12T01:08:31.830Z,100672.94
2022-08-12T01:11:20.517Z,100678.97
2022-08-12T01:13:52.486Z,100690.28
2022-08-12T01:16:23.801Z,100697.34
2022-08-12T01:18:54.094Z,100688.81
2022-08-12T01:21:52.045Z,100691.50
2022-08-12T01:25:12.584Z,100696.75
2022-08-12T01:27:42.755Z,100709.88
2022-08-12T01:30:14.394Z,100707.34
2022-08-12T01:32:43.613Z,100692.72
2022-08-12T01:35:16.284Z,100703.09
2022-08-12T01:37:49.444Z,100706.63
2022-08-12T01:40:35.438Z,100686.81
2022-08-12T01:43:10.539Z,100696.31
2022-08-12T01:53:02.959Z,100704.84
2022-08-12T01:55:34.607Z,100710.97
2022-08-12T01:58:17.542Z,100705.66
2022-08-12T02:00:55.278Z,100708.31
2022-08-12T02:04:03.501Z,100704.03
2022-08-12T02:06:52.730Z,100703.91
2022-08-12T02:10:51.111Z,100701.22
2022-08-12T02:13:50.171Z,100707.34
2022-08-12T02:16:33.689Z,100684.03
2022-08-12T02:23:09.483Z,100718.47
2022-08-12T02:25:40.116Z,100717.03
2022-08-12T02:28:08.804Z,100724.28
2022-08-12T02:30:42.067Z,100725.44
2022-08-12T02:33:11.945Z,100712.72
2022-08-12T02:35:40.784Z,100703.38
2022-08-12T02:38:12.690Z,100720.53
2022-08-12T02:40:45.720Z,100701.84
2022-08-12T02:43:23.626Z,100719.31
2022-08-12T02:45:59.634Z,100717.88
2022-08-12T02:48:30.966Z,100682.69
2022-08-12T02:51:08.316Z,100719.13
2022-08-12T02:53:38.137Z,100704.63
2022-08-12T02:56:08.148Z,100720.31
2022-08-12T02:58:41.260Z,100710.00
2022-08-12T03:01:36.184Z,100703.25
2022-08-12T03:07:59.342Z,100701.69
2022-08-12T03:10:37.768Z,100697.50
2022-08-12T03:13:08.487Z,100681.06
2022-08-12T03:15:37.874Z,100715.56
2022-08-12T03:18:26.214Z,100700.91
2022-08-12T03:21:55.314Z,100718.06
2022-08-12T03:25:06.626Z,100711.09
2022-08-12T03:27:40.582Z,100718.00
2022-08-12T03:30:10.143Z,100716.25
2022-08-12T03:32:41.681Z,100710.22
2022-08-12T03:35:40.229Z,100654.84
2022-08-12T03:38:12.498Z,100716.09
2022-08-12T03:41:12.057Z,100697.78
2022-08-12T03:48:08.921Z,100700.28
2022-08-12T03:50:58.035Z,100690.75
2022-08-12T03:53:47.215Z,100711.22
2022-08-12T03:56:35.235Z,100698.22
2022-08-12T04:02:47.011Z,100704.09
2022-08-12T04:05:55.829Z,100710.81
2022-08-12T04:08:27.302Z,100711.53
2022-08-12T04:11:13.452Z,100707.84
2022-08-12T04:13:42.169Z,100704.31
2022-08-12T04:16:14.346Z,100718.00
2022-08-12T04:18:43.704Z,100718.75
2022-08-12T04:21:17.123Z,100715.94
2022-08-12T04:23:48.582Z,100697.66
2022-08-12T04:26:20.370Z,100711.25
2022-08-12T04:28:50.300Z,100697.25
2022-08-12T04:31:21.112Z,100710.91
2022-08-12T04:33:50.482Z,100714.19
2022-08-12T04:36:20.523Z,100678.53
2022-08-12T04:38:50.325Z,100680.00
2022-08-12T04:41:25.468Z,100699.81
2022-08-12T04:44:02.199Z,100709.81
2022-08-12T04:46:35.008Z,100707.94
2022-08-12T04:49:05.933Z,100706.09
2022-08-12T04:51:43.147Z,100704.88
2022-08-12T04:57:49.389Z,100712.13
2022-08-12T05:00:48.038Z,100705.78
2022-08-12T05:03:46.691Z,100681.41
2022-08-12T05:06:27.038Z,100710.69
2022-08-12T05:09:00.721Z,100700.22
2022-08-12T05:11:30.700Z,100688.75
2022-08-12T05:14:02.112Z,100703.22
2022-08-12T05:16:34.141Z,100706.59
2022-08-12T05:19:12.919Z,100689.94
2022-08-12T05:22:37.478Z,100701.72
2022-08-12T05:25:33.694Z,100697.09
2022-08-12T05:28:06.623Z,100707.34
2022-08-12T05:30:36.934Z,100703.66
2022-08-12T05:33:06.654Z,100704.31
2022-08-12T05:35:40.154Z,100686.75
2022-08-12T05:38:26.315Z,100695.97
2022-08-12T05:40:56.882Z,100703.47
2022-08-12T05:43:25.776Z,100685.09
2022-08-12T05:45:55.030Z,100694.06
2022-08-12T05:48:24.582Z,100685.16
2022-08-12T05:50:58.043Z,100699.38
2022-08-12T05:53:26.819Z,100699.09
2022-08-12T05:55:56.807Z,100697.78
2022-08-12T05:58:25.404Z,100694.88
2022-08-12T06:02:08.880Z,100672.31
2022-08-12T06:03:53.958Z,100703.06
2022-08-12T06:06:27.571Z,100695.81
2022-08-12T06:08:57.669Z,100695.50
2022-08-12T06:12:04.117Z,100696.00
2022-08-12T06:15:00.085Z,100677.63
2022-08-12T06:17:38.786Z,100687.53
2022-08-12T06:20:27.432Z,100655.41
2022-08-12T06:22:58.975Z,100696.56
2022-08-12T06:25:29.412Z,100690.09
2022-08-12T06:28:06.809Z,100649.44
2022-08-12T06:30:39.563Z,100695.69
2022-08-12T06:33:59.620Z,100671.19
2022-08-12T06:35:58.966Z,100688.81
2022-08-12T06:38:29.100Z,100669.78
2022-08-12T06:41:17.227Z,100674.56
2022-08-12T06:44:05.672Z,100689.81
2022-08-12T06:46:39.777Z,100693.19
2022-08-12T06:49:13.460Z,100683.59
2022-08-12T06:51:42.137Z,100679.91
2022-08-12T06:54:31.162Z,100679.56
2022-08-12T06:58:05.070Z,100679.34
2022-08-12T07:00:15.164Z,100697.19
2022-08-12T07:02:44.015Z,100690.75
2022-08-12T07:05:38.003Z,100688.56
2022-08-12T07:08:10.221Z,100677.13
2022-08-12T07:11:06.793Z,100686.28
2022-08-12T07:14:02.587Z,100685.09
2022-08-12T07:16:50.585Z,100656.38
2022-08-12T07:19:48.602Z,100689.75
2022-08-12T07:22:18.206Z,100666.19
2022-08-12T07:25:07.824Z,100667.59
2022-08-12T07:27:40.908Z,100683.72
2022-08-12T07:30:14.590Z,100679.78
2022-08-12T07:32:47.766Z,100651.75
2022-08-12T07:35:45.671Z,100684.81
2022-08-12T07:38:30.804Z,100680.09
2022-08-12T07:41:06.359Z,100644.59
2022-08-12T07:43:39.517Z,100670.38
2022-08-12T07:46:09.805Z,100657.97
2022-08-12T07:48:51.615Z,100656.66
2022-08-12T07:51:24.931Z,100679.91
2022-08-12T07:54:02.842Z,100679.69
2022-08-12T07:56:32.948Z,100679.00
2022-08-12T07:59:04.215Z,100681.03
2022-08-12T08:01:39.313Z,100668.97
2022-08-12T08:07:31.825Z,100675.75
2022-08-12T08:10:29.758Z,100674.91
2022-08-12T08:12:59.015Z,100665.06
2022-08-12T08:16:00.723Z,100667.16
2022-08-12T08:18:26.532Z,100666.00
2022-08-12T08:21:13.146Z,100669.16
2022-08-12T08:24:05.126Z,100617.44
2022-08-12T08:26:35.071Z,100661.59
2022-08-12T08:29:13.136Z,100654.97
2022-08-12T08:31:45.458Z,100652.31
2022-08-12T08:34:33.684Z,100636.94
2022-08-12T08:37:33.393Z,100634.63
2022-08-12T08:40:28.217Z,100658.00
2022-08-12T08:42:57.572Z,100643.97
2022-08-12T08:45:30.191Z,100661.22
2022-08-12T08:48:00.411Z,100661.56
2022-08-12T08:50:30.270Z,100660.13
2022-08-12T08:53:08.925Z,100654.31
2022-08-12T08:56:03.199Z,100629.47
2022-08-12T08:58:26.383Z,100628.50
2022-08-12T09:01:05.977Z,100614.78
2022-08-12T09:05:07.391Z,100643.63
2022-08-12T09:13:00.717Z,100628.31
2022-08-12T09:15:59.419Z,100646.63
2022-08-12T09:18:33.210Z,100632.75
2022-08-12T09:21:09.578Z,100634.78
2022-08-12T09:23:58.982Z,100628.56
2022-08-12T09:26:29.301Z,100643.09
2022-08-12T09:28:57.994Z,100637.34
2022-08-12T09:32:06.887Z,100626.94
2022-08-12T09:35:33.425Z,100631.03
2022-08-12T09:38:25.564Z,100620.59
2022-08-12T09:42:07.281Z,100624.53
2022-08-12T09:44:07.046Z,100609.53
2022-08-12T09:47:45.696Z,100616.88
2022-08-12T09:50:28.974Z,100604.41
2022-08-12T09:53:15.416Z,100617.94
2022-08-12T09:56:05.382Z,100578.44
2022-08-12T09:58:56.993Z,100610.16
2022-08-12T10:01:34.910Z,100615.75
2022-08-12T10:07:52.393Z,100599.50
2022-08-12T10:10:24.814Z,100561.53
2022-08-12T10:13:39.759Z,100596.00
2022-08-12T10:16:22.046Z,100576.09
2022-08-12T10:18:55.936Z,100581.34
2022-08-12T10:21:35.570Z,100590.47
2022-08-12T10:24:08.519Z,100599.75
2022-08-12T10:26:55.632Z,100577.13
2022-08-12T10:30:43.913Z,100586.16
2022-08-12T10:33:18.844Z,100593.69
2022-08-12T10:35:49.747Z,100574.88
2022-08-12T10:38:34.640Z,100591.00
2022-08-12T10:41:57.397Z,100584.47
2022-08-12T10:44:17.102Z,100564.34
2022-08-12T10:46:49.168Z,100572.06
2022-08-12T10:50:07.078Z,100577.19
2022-08-12T10:52:39.449Z,100577.47
2022-08-12T10:55:13.194Z,100574.63
2022-08-12T10:58:15.041Z,100569.41
2022-08-12T11:00:55.583Z,100574.19
2022-08-12T11:04:25.124Z,100560.97
2022-08-12T11:07:05.539Z,100543.97
2022-08-12T11:09:55.687Z,100555.28
2022-08-12T11:12:56.718Z,100538.84
2022-08-12T11:15:33.355Z,100505.88
2022-08-12T11:18:17.766Z,100523.44
2022-08-12T11:20:50.593Z,100541.69
2022-08-12T11:23:36.944Z,100543.09
2022-08-12T11:26:09.147Z,100516.72
2022-08-12T11:28:39.188Z,100532.38
2022-08-12T11:31:11.852Z,100536.19
2022-08-12T11:34:04.545Z,100526.22
2022-08-12T11:36:30.923Z,100528.88
2022-08-12T11:39:05.050Z,100522.84
2022-08-12T11:41:39.382Z,100513.25
2022-08-12T11:47:09.438Z,100499.97
2022-08-12T11:49:40.418Z,100486.59
2022-08-12T11:52:17.506Z,100514.00
2022-08-12T11:55:34.351Z,100513.06
2022-08-12T11:59:02.765Z,100476.25
2022-08-12T12:02:03.035Z,100479.56
2022-08-12T12:04:52.503Z,100497.97
2022-08-12T12:08:36.223Z,100495.72
2022-08-12T12:10:23.374Z,100497.41
2022-08-12T12:12:53.614Z,100487.91
2022-08-12T12:15:24.884Z,100461.06
2022-08-12T12:17:55.686Z,100477.97
2022-08-12T12:20:26.011Z,100492.38
2022-08-12T12:22:58.441Z,100480.41
2022-08-12T12:26:34.893Z,100490.09
2022-08-12T12:29:07.842Z,100493.25
2022-08-12T12:32:53.286Z,100476.72
2022-08-12T12:38:39.749Z,100472.19
2022-08-12T12:41:16.430Z,100427.88
2022-08-12T12:44:03.778Z,100462.00
2022-08-12T12:46:33.527Z,100461.22
2022-08-12T12:49:10.982Z,100468.81
2022-08-12T12:52:30.401Z,100453.94
2022-08-12T12:55:23.318Z,100461.38
2022-08-12T12:58:00.712Z,100418.88
2022-08-12T13:03:49.049Z,100414.38
2022-08-12T13:09:13.663Z,100446.81
2022-08-12T13:11:44.478Z,100451.84
2022-08-12T13:18:05.526Z,100448.09
2022-08-12T13:20:43.093Z,100449.41
2022-08-12T13:23:36.370Z,100425.56
2022-08-12T13:26:02.516Z,100449.84
2022-08-12T13:28:32.641Z,100420.03
2022-08-12T13:31:03.518Z,100443.09
2022-08-12T13:34:34.259Z,100453.28
2022-08-12T13:36:21.797Z,100444.81
2022-08-12T13:38:54.566Z,100424.16
2022-08-12T13:41:36.721Z,100429.81
2022-08-12T13:47:12.383Z,100431.78
2022-08-12T13:50:14.194Z,100432.16
2022-08-12T13:52:43.668Z,100435.56
2022-08-12T13:56:04.922Z,100437.38
2022-08-12T13:58:37.553Z,100428.63
2022-08-12T14:01:08.913Z,100407.63
2022-08-12T14:03:51.118Z,100443.34
2022-08-12T14:06:20.788Z,100420.00
2022-08-12T14:08:51.548Z,100407.31
2022-08-12T14:11:25.299Z,100435.25
2022-08-12T14:14:04.082Z,100417.81
2022-08-12T14:16:49.140Z,100403.09
2022-08-12T14:22:38.159Z,100414.00
2022-08-12T14:25:35.936Z,100412.94
2022-08-12T14:28:11.695Z,100419.13
2022-08-12T14:31:25.716Z,100410.28
2022-08-12T14:34:00.304Z,100416.38
2022-08-12T14:36:34.307Z,100412.09
2022-08-12T14:39:06.562Z,100387.66
2022-08-12T14:41:56.930Z,100416.94
2022-08-12T14:45:47.033Z,100414.50
2022-08-12T14:48:24.511Z,100416.94
2022-08-12T14:52:10.639Z,100413.00
2022-08-12T14:55:13.899Z,100427.59
2022-08-12T15:00:37.646Z,100435.22
2022-08-12T15:03:07.947Z,100428.97
2022-08-12T15:06:05.085Z,100424.88
2022-08-12T15:08:33.614Z,100379.53
2022-08-12T15:11:09.928Z,100416.47
2022-08-12T15:13:39.808Z,100425.94
2022-08-12T15:16:13.293Z,100407.72
2022-08-12T15:18:55.478Z,100417.28
2022-08-12T15:22:35.361Z,100407.81
2022-08-12T15:25:47.309Z,100419.66
2022-08-12T15:28:21.356Z,100383.16
2022-08-12T15:30:53.803Z,100420.72
2022-08-12T15:33:24.085Z,100418.06
2022-08-12T15:35:53.989Z,100419.28
2022-08-12T15:38:28.422Z,100406.63
2022-08-12T15:41:00.203Z,100411.22
2022-08-12T15:44:16.119Z,100391.59
2022-08-12T15:46:47.503Z,100415.53
2022-08-12T15:50:08.705Z,100411.22
2022-08-12T15:52:53.766Z,100406.03
2022-08-12T15:56:12.814Z,100425.09
2022-08-12T15:58:43.827Z,100428.13
2022-08-12T16:01:19.801Z,100390.69
2022-08-12T16:04:21.433Z,100415.53
2022-08-12T16:07:05.905Z,100418.03
2022-08-12T16:10:06.314Z,100414.59
2022-08-12T16:12:31.363Z,100393.03
2022-08-12T16:16:02.463Z,100421.69
2022-08-12T16:18:36.078Z,100399.84
2022-08-12T16:21:11.636Z,100415.53
2022-08-12T16:24:04.883Z,100421.06
2022-08-12T16:26:37.408Z,100394.91
2022-08-12T16:29:15.188Z,100375.81
2022-08-12T16:32:36.969Z,100410.63
2022-08-12T16:35:31.516Z,100409.25
2022-08-12T16:38:27.553Z,100424.41
2022-08-12T16:40:57.625Z,100372.97
2022-08-12T16:43:33.590Z,100410.84
2022-08-12T16:46:31.432Z,100427.44
2022-08-12T16:48:59.568Z,100433.09
2022-08-12T16:51:47.002Z,100439.59
2022-08-12T16:58:01.971Z,100360.19
2022-08-12T17:01:27.625Z,100429.09
2022-08-12T17:04:28.148Z,100415.59
2022-08-12T17:07:02.912Z,100432.91
2022-08-12T17:10:07.725Z,100434.47
2022-08-12T17:12:38.298Z,100377.81
2022-08-12T17:18:57.826Z,100436.09
2022-08-12T17:21:41.722Z,100413.25
2022-08-12T17:27:46.478Z,100400.66
2022-08-12T17:30:59.690Z,100434.50
2022-08-12T17:33:55.605Z,100434.41
2022-08-12T17:36:28.112Z,100431.63
2022-08-12T17:38:58.430Z,100415.16
2022-08-12T17:45:21.221Z,100437.56
2022-08-12T17:48:05.473Z,100423.28
2022-08-12T17:50:37.990Z,100418.41
2022-08-12T17:53:10.089Z,100432.56
2022-08-12T17:55:47.497Z,100387.28
2022-08-12T17:58:35.668Z,100435.94
2022-08-12T18:01:41.626Z,100435.84
2022-08-12T18:04:21.391Z,100439.81
2022-08-12T18:07:43.807Z,100439.41
2022-08-12T18:10:13.715Z,100374.22
2022-08-12T18:12:53.585Z,100412.38
2022-08-12T18:16:06.045Z,100438.53
2022-08-12T18:18:35.735Z,100439.75
2022-08-12T18:21:07.059Z,100425.69
2022-08-12T18:23:53.680Z,100436.16
2022-08-12T18:26:27.079Z,100445.84
2022-08-12T18:28:58.066Z,100446.16
2022-08-12T18:31:43.834Z,100423.75
2022-08-12T18:34:14.340Z,100437.06
2022-08-12T18:36:51.707Z,100441.25
2022-08-12T18:39:24.411Z,100440.97
2022-08-12T18:41:53.096Z,100446.75
2022-08-12T18:44:22.853Z,100396.59
2022-08-12T18:46:57.496Z,100405.38
2022-08-12T18:50:24.728Z,100447.03
2022-08-12T18:52:55.744Z,100374.28
2022-08-12T18:56:02.155Z,100455.81
2022-08-12T18:58:36.657Z,100451.31
2022-08-12T19:01:09.649Z,100450.97
2022-08-12T19:04:06.852Z,100425.13
2022-08-12T19:06:38.366Z,100460.03
2022-08-12T19:09:11.906Z,100452.53
2022-08-12T19:12:00.736Z,100449.50
2022-08-12T19:14:32.805Z,100392.59
2022-08-12T19:17:05.390Z,100420.34
2022-08-12T19:19:46.677Z,100453.44
2022-08-12T19:22:29.057Z,100408.25
2022-08-12T19:26:01.024Z,100451.34
2022-08-12T19:28:29.951Z,100452.59
2022-08-12T19:31:57.362Z,100462.66
2022-08-12T19:36:14.441Z,100457.06
2022-08-12T19:38:17.980Z,100463.69
2022-08-12T19:40:49.059Z,100468.34
2022-08-12T19:43:25.313Z,100377.63
2022-08-12T19:46:10.693Z,100438.69
2022-08-12T19:48:45.665Z,100462.09
2022-08-12T19:51:35.863Z,100452.00
2022-08-12T19:54:10.989Z,100464.28
2022-08-12T19:57:31.970Z,100462.03
2022-08-12T20:00:34.920Z,100449.13
2022-08-12T20:03:06.919Z,100447.88
2022-08-12T20:06:07.058Z,100453.72
2022-08-12T20:08:40.317Z,100416.16
2022-08-12T20:12:11.565Z,100463.31
2022-08-12T20:15:44.545Z,100458.72
2022-08-12T20:18:44.458Z,100459.59
2022-08-12T20:21:07.691Z,100426.25
2022-08-12T20:24:00.402Z,100367.84
2022-08-12T20:27:02.509Z,100456.97
2022-08-12T20:33:32.567Z,100422.53
2022-08-12T20:36:42.323Z,100461.34
2022-08-12T20:39:53.545Z,100452.84
2022-08-12T20:42:32.175Z,100453.91
2022-08-12T20:45:50.637Z,100462.69
2022-08-12T20:48:21.840Z,100443.91
2022-08-12T20:50:53.694Z,100465.56
2022-08-12T20:53:32.974Z,100466.53
2022-08-12T20:56:22.254Z,100448.63
2022-08-12T20:59:03.651Z,100436.91
2022-08-12T21:01:47.417Z,100451.03
2022-08-12T21:08:43.950Z,100478.03
2022-08-12T21:11:13.948Z,100462.81
2022-08-12T21:13:42.731Z,100478.38
2022-08-12T21:16:17.649Z,100451.72
2022-08-12T21:19:08.223Z,100463.91
2022-08-12T21:21:50.141Z,100465.91
2022-08-12T21:24:30.174Z,100429.84
2022-08-12T21:27:07.489Z,100458.19
2022-08-12T21:30:27.508Z,100478.00
2022-08-12T21:33:10.489Z,100454.72
2022-08-12T21:35:40.145Z,100453.94
2022-08-12T21:38:10.144Z,100439.44
2022-08-12T21:40:51.462Z,100486.88
2022-08-12T21:43:21.553Z,100481.13
2022-08-12T21:46:00.884Z,100481.09
2022-08-12T21:48:33.598Z,100463.28
2022-08-12T21:51:02.304Z,100447.09
2022-08-12T21:54:07.001Z,100487.78
2022-08-12T21:56:37.881Z,100489.78
2022-08-12T21:59:14.740Z,100447.94
2022-08-12T22:01:50.243Z,100467.06
2022-08-12T22:05:05.754Z,100484.25
2022-08-12T22:07:55.497Z,100487.00
2022-08-12T22:10:29.835Z,100485.38
2022-08-12T22:13:01.615Z,100485.44
2022-08-12T22:15:32.813Z,100486.47
2022-08-12T22:18:07.968Z,100478.13
2022-08-12T22:20:40.600Z,100450.03
2022-08-12T22:23:21.627Z,100445.84
2022-08-12T22:25:59.617Z,100488.97
2022-08-12T22:28:46.232Z,100494.38
2022-08-12T22:31:16.361Z,100498.03
2022-08-12T22:33:53.986Z,100501.66
2022-08-12T22:36:29.147Z,100471.66
2022-08-12T22:39:01.177Z,100487.34
2022-08-12T22:41:47.771Z,100510.78
2022-08-12T22:44:54.973Z,100509.91
2022-08-12T22:48:21.977Z,100465.25
2022-08-12T22:53:55.936Z,100505.88
2022-08-12T22:56:31.482Z,100513.81
2022-08-12T22:59:04.527Z,100519.19
2022-08-12T23:01:52.667Z,100520.09
2022-08-12T23:06:09.571Z,100520.19
2022-08-12T23:08:35.248Z,100477.25
2022-08-12T23:11:10.958Z,100455.81
2022-08-12T23:13:55.395Z,100513.47
2022-08-12T23:16:31.778Z,100512.63
2022-08-12T23:19:10.601Z,100519.72
2022-08-12T23:22:37.351Z,100505.25
2022-08-12T23:25:21.077Z,100513.84
2022-08-12T23:28:29.481Z,100462.31
2022-08-12T23:31:04.748Z,100512.50
2022-08-12T23:34:01.446Z,100416.00
2022-08-12T23:36:31.710Z,100449.47
2022-08-12T23:40:06.755Z,100522.53
2022-08-12T23:42:17.371Z,100522.53
2022-08-12T23:45:18.979Z,100518.31
2022-08-12T23:47:53.074Z,100483.16
2022-08-12T23:50:33.794Z,100438.56
2022-08-12T23:53:22.448Z,100510.28
2022-08-12T23:55:57.370Z,100526.78
2022-08-12T23:58:31.253Z,100532.94
